Time;durP1;ratioP1;P1;durP2;ratioP2;P2;SDS_P1;SDS_P2;PMS_P1;PMS_P2;Temp;Humidity;BMP_temperature;BMP_pressure;BME280_temperature;BME280_humidity;BME280_pressure;Samples;Min_cycle;Max_cycle;Signal;HPM_P1;HPM_P2
2021/06/14 00:00:45;;;;;;;6.30;4.07;;;22.90;97.40;;;;;;5012981;28;20021;-76
2021/06/14 00:03:11;;;;;;;10.85;4.55;;;22.70;97.70;;;;;;5013055;28;20029;-76
2021/06/14 00:05:45;;;;;;;4.78;3.97;;;22.70;97.90;;;;;;5012926;28;20022;-77
2021/06/14 00:08:17;;;;;;;11.15;4.40;;;22.60;98.00;;;;;;5012702;28;20065;-76
2021/06/14 00:10:47;;;;;;;8.85;5.32;;;22.50;98.10;;;;;;5013024;28;20501;-75
2021/06/14 00:13:14;;;;;;;8.82;4.32;;;22.40;98.20;;;;;;5012990;28;20029;-76
2021/06/14 00:15:41;;;;;;;8.57;4.22;;;22.40;98.30;;;;;;5012867;28;20544;-74
2021/06/14 00:18:07;;;;;;;8.57;4.22;;;22.30;98.40;;;;;;5012240;28;20022;-75
2021/06/14 00:20:34;;;;;;;6.78;3.75;;;22.30;98.50;;;;;;5012468;28;20044;-75
2021/06/14 00:23:00;;;;;;;7.88;4.20;;;22.20;98.50;;;;;;5012831;28;20057;-75
2021/06/14 00:25:28;;;;;;;9.30;4.20;;;22.10;98.50;;;;;;5010643;28;20049;-75
2021/06/14 00:27:55;;;;;;;4.72;3.53;;;22.10;98.40;;;;;;4994499;28;20068;-76
2021/06/14 00:30:33;;;;;;;11.10;3.75;;;22.10;98.40;;;;;;5012221;28;20014;-74
2021/06/14 00:32:59;;;;;;;7.95;4.32;;;22.00;98.20;;;;;;5011726;28;20462;-75
2021/06/14 00:35:25;;;;;;;9.95;4.18;;;21.90;98.10;;;;;;5011936;28;20064;-76
2021/06/14 00:37:50;;;;;;;4.82;3.47;;;21.80;97.80;;;;;;5012047;28;20026;-75
2021/06/14 00:40:16;;;;;;;12.65;3.90;;;21.80;97.80;;;;;;5011848;28;20038;-75
2021/06/14 00:42:44;;;;;;;14.68;3.58;;;21.80;97.40;;;;;;5011540;28;20221;-75
2021/06/14 00:45:15;;;;;;;11.25;3.70;;;21.70;97.20;;;;;;5011691;28;20021;-75
2021/06/14 00:47:44;;;;;;;11.13;3.35;;;21.70;97.00;;;;;;4994385;28;20075;-75
2021/06/14 00:50:13;;;;;;;15.88;3.78;;;21.60;96.80;;;;;;5011817;28;20025;-74
2021/06/14 00:52:40;;;;;;;5.10;3.33;;;21.50;96.60;;;;;;5011665;28;20110;-77
2021/06/14 00:55:07;;;;;;;6.07;3.45;;;21.50;96.50;;;;;;4993456;28;20029;-76
2021/06/14 00:57:33;;;;;;;10.43;3.47;;;21.50;96.50;;;;;;4993975;28;20034;-75
2021/06/14 00:59:59;;;;;;;5.57;3.05;;;21.50;95.90;;;;;;5014757;28;20490;-76
2021/06/14 01:02:25;;;;;;;5.97;3.17;;;21.40;95.90;;;;;;5015211;28;20018;-76
2021/06/14 01:04:50;;;;;;;7.40;3.25;;;21.30;95.80;;;;;;5015526;28;20483;-76
2021/06/14 01:07:16;;;;;;;4.70;3.13;;;21.30;95.80;;;;;;5015160;28;20080;-76
2021/06/14 01:09:42;;;;;;;10.23;3.53;;;21.30;95.60;;;;;;5015152;28;20022;-76
2021/06/14 01:12:12;;;;;;;6.18;3.05;;;21.20;95.70;;;;;;5015286;28;20062;-76
2021/06/14 01:14:42;;;;;;;16.27;3.05;;;21.20;95.60;;;;;;4981813;28;20081;-76
2021/06/14 01:17:42;;;;;;;12.65;3.25;;;21.20;95.60;;;;;;4997858;28;20026;-76
2021/06/14 01:20:24;;;;;;;6.47;2.90;;;21.10;95.50;;;;;;5015533;28;20018;-75
2021/06/14 01:23:01;;;;;;;12.18;3.30;;;21.10;95.50;;;;;;4990032;28;20053;-75
2021/06/14 01:25:41;;;;;;;8.48;3.05;;;21.10;95.30;;;;;;5015426;28;20026;-76
2021/06/14 01:28:08;;;;;;;13.10;3.78;;;21.00;95.40;;;;;;5015024;28;20041;-76
2021/06/14 01:30:37;;;;;;;17.30;3.42;;;20.90;95.50;;;;;;5014312;28;20029;-75
2021/06/14 01:33:06;;;;;;;8.23;2.90;;;20.80;95.70;;;;;;5014685;28;20041;-76
2021/06/14 01:35:38;;;;;;;6.55;3.25;;;20.60;95.70;;;;;;5014986;28;20247;-75
2021/06/14 01:38:08;;;;;;;9.48;2.97;;;20.60;95.70;;;;;;5014566;28;20021;-76
2021/06/14 01:40:36;;;;;;;7.30;3.10;;;20.60;95.60;;;;;;5014972;28;20022;-76
2021/06/14 01:43:05;;;;;;;18.27;3.50;;;20.60;95.70;;;;;;5014538;28;20060;-76
2021/06/14 01:45:34;;;;;;;9.52;3.42;;;20.50;95.70;;;;;;5014973;28;20025;-77
2021/06/14 01:48:01;;;;;;;14.75;3.10;;;20.50;95.50;;;;;;5014645;28;20022;-74
2021/06/14 01:50:29;;;;;;;11.10;3.63;;;20.40;95.40;;;;;;5014952;28;20026;-76
2021/06/14 01:52:56;;;;;;;14.23;3.10;;;20.40;95.40;;;;;;5014473;28;20022;-76
2021/06/14 01:55:22;;;;;;;13.82;3.33;;;20.50;95.40;;;;;;5014621;28;20372;-75
2021/06/14 01:57:48;;;;;;;19.08;3.45;;;20.40;95.20;;;;;;5014500;28;20037;-76
2021/06/14 02:00:15;;;;;;;16.08;3.30;;;20.40;95.30;;;;;;5014761;28;20416;-76
2021/06/14 02:02:43;;;;;;;6.13;2.72;;;20.40;95.30;;;;;;5014821;28;20101;-76
2021/06/14 02:05:10;;;;;;;21.33;3.55;;;20.30;95.30;;;;;;5014427;28;20030;-75
2021/06/14 02:07:36;;;;;;;10.90;3.38;;;20.30;95.40;;;;;;5014475;28;20026;-76
2021/06/14 02:10:06;;;;;;;6.53;3.28;;;20.20;95.50;;;;;;5013516;28;20447;-76
2021/06/14 02:12:32;;;;;;;6.72;2.67;;;20.20;95.50;;;;;;5014537;28;20076;-76
2021/06/14 02:14:59;;;;;;;10.65;3.55;;;20.20;95.60;;;;;;5014352;28;20041;-76
2021/06/14 02:17:29;;;;;;;8.40;3.08;;;20.10;95.50;;;;;;5014572;28;20468;-76
2021/06/14 02:19:55;;;;;;;13.00;3.47;;;20.10;95.60;;;;;;5013990;28;20513;-76
2021/06/14 02:22:21;;;;;;;12.57;3.50;;;20.10;95.60;;;;;;5014408;28;20026;-76
2021/06/14 02:24:47;;;;;;;13.32;3.47;;;20.10;95.50;;;;;;5014320;28;20029;-75
2021/06/14 02:27:16;;;;;;;15.90;3.28;;;20.10;95.40;;;;;;5014266;28;20073;-76
2021/06/14 02:29:42;;;;;;;6.93;3.40;;;20.10;95.40;;;;;;5014398;28;20025;-76
2021/06/14 02:32:08;;;;;;;9.77;2.67;;;20.10;95.40;;;;;;5013750;28;20029;-76
2021/06/14 02:34:36;;;;;;;10.73;3.08;;;20.10;95.50;;;;;;5014031;28;20034;-77
2021/06/14 02:37:04;;;;;;;7.72;3.00;;;20.10;95.50;;;;;;4996413;28;20065;-76
2021/06/14 02:39:32;;;;;;;7.32;2.75;;;20.00;95.30;;;;;;5013229;28;20060;-77
2021/06/14 02:41:59;;;;;;;7.00;3.20;;;20.10;95.30;;;;;;5013456;28;20018;-75
2021/06/14 02:44:26;;;;;;;6.88;2.50;;;20.10;95.40;;;;;;5013383;28;20030;-75
2021/06/14 02:46:59;;;;;;;11.00;3.42;;;20.10;95.20;;;;;;5014106;28;20635;-75
2021/06/14 02:49:27;;;;;;;6.80;2.70;;;20.10;95.30;;;;;;5013792;28;20494;-76
2021/06/14 02:51:56;;;;;;;5.97;3.08;;;20.00;95.30;;;;;;5013980;28;20022;-76
2021/06/14 02:54:35;;;;;;;10.45;3.15;;;20.00;95.20;;;;;;5013647;28;20040;-76
2021/06/14 02:57:03;;;;;;;13.63;3.55;;;20.00;95.20;;;;;;5013977;28;20049;-77
2021/06/14 02:59:30;;;;;;;9.82;3.47;;;20.00;95.20;;;;;;5013584;28;20036;-76
2021/06/14 03:01:56;;;;;;;20.70;3.42;;;20.00;95.30;;;;;;5013519;28;20109;-76
2021/06/14 03:04:23;;;;;;;7.85;3.25;;;20.00;95.00;;;;;;5013042;28;20109;-76
2021/06/14 03:06:51;;;;;;;6.90;3.00;;;20.00;94.90;;;;;;5013223;28;20053;-75
2021/06/14 03:09:18;;;;;;;19.05;3.25;;;20.00;94.80;;;;;;5012938;28;20030;-76
2021/06/14 03:11:45;;;;;;;9.20;3.05;;;19.90;94.80;;;;;;5013191;28;20077;-75
2021/06/14 03:14:15;;;;;;;6.80;2.70;;;19.90;94.80;;;;;;5013159;28;20026;-76
2021/06/14 03:16:46;;;;;;;16.23;2.80;;;19.90;94.80;;;;;;5013301;28;20022;-76
2021/06/14 03:19:13;;;;;;;10.18;3.30;;;19.90;94.70;;;;;;5013410;28;20022;-76
2021/06/14 03:21:40;;;;;;;16.70;3.47;;;19.90;94.40;;;;;;5012185;28;20029;-76
2021/06/14 03:24:07;;;;;;;14.15;2.97;;;19.90;94.40;;;;;;5012835;28;20022;-76
2021/06/14 03:26:41;;;;;;;15.27;2.90;;;19.90;94.30;;;;;;5013082;28;20120;-77
2021/06/14 03:29:08;;;;;;;14.43;3.13;;;19.90;94.20;;;;;;5013028;28;20017;-75
2021/06/14 03:31:37;;;;;;;8.40;3.30;;;19.90;94.10;;;;;;5013151;28;20446;-75
2021/06/14 03:34:05;;;;;;;11.68;3.20;;;19.90;94.20;;;;;;4994967;28;20057;-76
2021/06/14 03:36:31;;;;;;;4.88;2.65;;;19.90;94.00;;;;;;5012737;28;20038;-76
2021/06/14 03:38:58;;;;;;;14.05;2.92;;;19.90;94.10;;;;;;5013070;28;20026;-75
2021/06/14 03:41:24;;;;;;;6.22;2.65;;;20.00;94.20;;;;;;5012569;28;20033;-74
2021/06/14 03:43:51;;;;;;;10.95;3.10;;;20.00;93.80;;;;;;5012850;28;20037;-75
2021/06/14 03:46:17;;;;;;;8.73;2.97;;;20.00;93.80;;;;;;5012528;28;20429;-76
2021/06/14 03:48:44;;;;;;;6.90;3.05;;;20.00;93.90;;;;;;4995066;28;20034;-75
2021/06/14 03:51:10;;;;;;;8.65;2.67;;;20.00;93.80;;;;;;5012303;28;20025;-76
2021/06/14 03:53:36;;;;;;;11.98;3.35;;;20.10;93.50;;;;;;5012688;28;20034;-75
2021/06/14 03:56:07;;;;;;;23.75;3.40;;;20.10;93.70;;;;;;5012825;28;20029;-75
2021/06/14 03:58:32;;;;;;;12.98;2.63;;;20.20;93.40;;;;;;5012068;28;20243;-76
2021/06/14 04:00:59;;;;;;;9.43;2.72;;;20.20;93.30;;;;;;4994598;28;20527;-76
2021/06/14 04:03:27;;;;;;;14.82;3.13;;;20.30;93.30;;;;;;5011956;28;20486;-76
2021/06/14 04:05:55;;;;;;;9.85;2.85;;;20.40;93.20;;;;;;5012214;28;20022;-77
2021/06/14 04:08:21;;;;;;;6.40;2.15;;;20.40;93.30;;;;;;5012193;28;20378;-75
2021/06/14 04:10:47;;;;;;;5.25;2.60;;;20.40;93.10;;;;;;5012528;28;20030;-75
2021/06/14 04:13:13;;;;;;;9.52;2.50;;;20.40;93.10;;;;;;5006261;28;20049;-75
2021/06/14 04:15:38;;;;;;;8.60;3.10;;;20.40;92.90;;;;;;5007524;28;20045;-76
2021/06/14 04:18:05;;;;;;;6.82;2.45;;;20.30;92.90;;;;;;5003707;28;20069;-75
2021/06/14 04:20:30;;;;;;;4.10;2.80;;;20.30;93.00;;;;;;5006241;28;20386;-76
2021/06/14 04:22:56;;;;;;;9.70;2.78;;;20.30;92.70;;;;;;4987524;28;20026;-75
2021/06/14 04:25:22;;;;;;;4.30;2.67;;;20.30;92.70;;;;;;5004227;28;20018;-75
2021/06/14 04:27:48;;;;;;;11.05;2.78;;;20.40;92.80;;;;;;5006968;28;20439;-76
2021/06/14 04:30:15;;;;;;;10.13;2.40;;;20.40;92.60;;;;;;5002262;28;20106;-75
2021/06/14 04:32:42;;;;;;;18.33;3.65;;;20.40;92.60;;;;;;5007197;28;20029;-76
2021/06/14 04:35:08;;;;;;;13.88;3.00;;;20.40;92.60;;;;;;5011833;28;20042;-75
2021/06/14 04:37:34;;;;;;;7.05;2.75;;;20.40;92.50;;;;;;5011711;28;20117;-76
2021/06/14 04:40:00;;;;;;;11.85;2.70;;;20.30;92.70;;;;;;5011502;28;20117;-76
2021/06/14 04:42:27;;;;;;;9.48;3.00;;;20.30;92.70;;;;;;4999763;28;20045;-75
2021/06/14 04:44:53;;;;;;;5.10;2.92;;;20.30;92.80;;;;;;5005908;28;20370;-75
2021/06/14 04:47:19;;;;;;;7.90;2.92;;;20.30;92.90;;;;;;5002049;28;20034;-76
2021/06/14 04:49:45;;;;;;;9.80;2.42;;;20.40;92.80;;;;;;5000013;28;20037;-76
2021/06/14 04:52:11;;;;;;;10.60;3.05;;;20.40;92.80;;;;;;5000162;28;20010;-76
2021/06/14 04:54:37;;;;;;;11.70;2.95;;;20.50;92.50;;;;;;5001914;28;20030;-76
2021/06/14 04:57:03;;;;;;;8.75;2.33;;;20.40;92.60;;;;;;5005838;28;20030;-76
2021/06/14 04:59:29;;;;;;;9.00;2.97;;;20.50;92.60;;;;;;4994159;28;20058;-77
2021/06/14 05:01:55;;;;;;;13.18;3.22;;;20.70;92.40;;;;;;4989974;28;20072;-76
2021/06/14 05:04:20;;;;;;;10.65;3.15;;;20.80;92.20;;;;;;4983868;28;20121;-76
2021/06/14 05:06:46;;;;;;;15.65;2.60;;;20.80;92.20;;;;;;5003232;28;20018;-76
2021/06/14 05:09:12;;;;;;;6.75;2.60;;;21.00;92.00;;;;;;4985912;28;20026;-82
2021/06/14 05:11:38;;;;;;;6.35;2.53;;;20.90;92.10;;;;;;4984370;28;20053;-80
2021/06/14 05:14:04;;;;;;;8.38;2.47;;;21.10;92.10;;;;;;5005689;28;20443;-81
2021/06/14 05:16:30;;;;;;;20.73;2.88;;;21.10;92.20;;;;;;4991960;28;20030;-78
2021/06/14 05:18:56;;;;;;;15.38;3.65;;;21.40;91.90;;;;;;5006062;28;20493;-80
2021/06/14 05:21:21;;;;;;;22.58;2.70;;;21.70;91.60;;;;;;5001997;28;20023;-80
2021/06/14 05:23:47;;;;;;;11.68;2.50;;;22.20;91.10;;;;;;5003346;28;20040;-80
2021/06/14 05:26:13;;;;;;;4.88;2.63;;;22.70;91.00;;;;;;5003352;28;20639;-81
2021/06/14 05:28:39;;;;;;;13.18;2.90;;;24.80;88.60;;;;;;5002115;28;20031;-81
2021/06/14 05:31:04;;;;;;;11.23;2.33;;;27.50;84.10;;;;;;5005797;28;20018;-82
2021/06/14 05:33:31;;;;;;;6.13;2.15;;;30.10;79.40;;;;;;5005590;28;20045;-82
2021/06/14 05:35:57;;;;;;;7.65;2.17;;;31.70;76.50;;;;;;5011111;28;20045;-81
2021/06/14 05:38:22;;;;;;;5.88;1.98;;;32.70;73.90;;;;;;5011142;28;20029;-79
2021/06/14 05:40:48;;;;;;;8.65;2.50;;;33.00;71.70;;;;;;5010955;28;20048;-78
2021/06/14 05:43:14;;;;;;;12.60;2.50;;;32.40;71.70;;;;;;5011495;28;20037;-79
2021/06/14 05:45:40;;;;;;;8.82;2.25;;;32.50;70.80;;;;;;5012631;28;20108;-81
2021/06/14 05:48:06;;;;;;;6.15;1.88;;;33.80;69.60;;;;;;5014584;28;20018;-80
2021/06/14 05:50:32;;;;;;;9.05;2.28;;;34.30;68.30;;;;;;5014769;28;20034;-80
2021/06/14 05:52:58;;;;;;;15.27;2.50;;;34.20;68.10;;;;;;5014371;28;20494;-79
2021/06/14 05:55:24;;;;;;;14.82;2.30;;;32.20;69.20;;;;;;5014931;28;20030;-80
2021/06/14 05:57:50;;;;;;;4.25;2.10;;;30.50;72.10;;;;;;5014727;28;20029;-79
2021/06/14 06:00:16;;;;;;;25.45;2.60;;;30.30;73.20;;;;;;5014791;28;20356;-80
2021/06/14 06:02:42;;;;;;;5.20;2.30;;;30.10;73.60;;;;;;4997024;28;20018;-80
2021/06/14 06:05:08;;;;;;;10.13;2.17;;;29.80;74.10;;;;;;4996493;28;20018;-82
2021/06/14 06:07:37;;;;;;;5.05;2.30;;;29.50;74.50;;;;;;5004448;28;20064;-80
2021/06/14 06:10:05;;;;;;;11.07;2.95;;;30.10;74.70;;;;;;5011919;28;20434;-81
2021/06/14 06:12:31;;;;;;;11.35;2.35;;;31.70;72.10;;;;;;4997064;28;20032;-79
2021/06/14 06:14:58;;;;;;;16.48;2.40;;;33.90;69.70;;;;;;5014378;28;20100;-79
2021/06/14 06:17:24;;;;;;;5.47;2.05;;;34.70;66.90;;;;;;5014341;28;20505;-80
2021/06/14 06:19:49;;;;;;;13.02;2.30;;;35.90;66.50;;;;;;4996448;28;20452;-80
2021/06/14 06:22:15;;;;;;;7.22;2.45;;;37.50;65.00;;;;;;5013950;28;20046;-80
2021/06/14 06:24:41;;;;;;;9.40;2.10;;;37.90;63.00;;;;;;4985779;28;20022;-81
2021/06/14 06:27:07;;;;;;;13.77;2.35;;;37.60;63.30;;;;;;4994169;28;20068;-80
2021/06/14 06:29:33;;;;;;;10.90;2.13;;;36.40;62.40;;;;;;5014187;28;20026;-80
2021/06/14 06:31:59;;;;;;;5.80;2.20;;;36.40;62.70;;;;;;5013640;28;20071;-79
2021/06/14 06:34:24;;;;;;;11.88;2.13;;;36.00;63.10;;;;;;5013739;28;20033;-80
2021/06/14 06:36:50;;;;;;;6.80;2.42;;;34.40;64.90;;;;;;5013893;28;20058;-79
2021/06/14 06:39:16;;;;;;;5.90;2.15;;;32.80;67.00;;;;;;5013966;28;20030;-80
2021/06/14 06:41:42;;;;;;;6.95;1.77;;;31.50;68.50;;;;;;5013900;28;20522;-80
2021/06/14 06:44:09;;;;;;;6.47;2.00;;;30.40;70.00;;;;;;5014215;28;20026;-80
2021/06/14 06:46:35;;;;;;;14.15;2.53;;;29.40;71.60;;;;;;5013856;28;20022;-80
2021/06/14 06:49:01;;;;;;;5.13;1.92;;;28.90;72.90;;;;;;5013808;28;20022;-80
2021/06/14 06:51:27;;;;;;;11.52;2.42;;;28.60;73.70;;;;;;4997717;28;20612;-80
2021/06/14 06:54:10;;;;;;;9.98;3.20;;;28.60;74.50;;;;;;4995001;28;20495;-80
2021/06/14 06:56:41;;;;;;;11.38;2.40;;;28.70;75.30;;;;;;5001048;28;20025;-80
2021/06/14 06:59:07;;;;;;;8.88;2.15;;;28.40;74.50;;;;;;4998093;28;20102;-80
2021/06/14 07:01:33;;;;;;;7.22;2.13;;;27.80;76.20;;;;;;4978901;28;20158;-81
2021/06/14 07:03:59;;;;;;;11.75;2.70;;;27.50;76.70;;;;;;4995047;28;20097;-81
2021/06/14 07:06:24;;;;;;;14.45;2.83;;;27.30;77.50;;;;;;4993352;28;20079;-80
2021/06/14 07:08:52;;;;;;;4.63;2.28;;;27.10;78.10;;;;;;4992441;28;20022;-79
2021/06/14 07:11:18;;;;;;;11.70;2.80;;;26.80;78.50;;;;;;4993681;28;20023;-80
2021/06/14 07:13:44;;;;;;;7.22;2.63;;;25.90;79.60;;;;;;4991156;28;20025;-78
2021/06/14 07:16:09;;;;;;;9.85;2.50;;;25.70;80.80;;;;;;5003279;28;20375;-80
2021/06/14 07:18:35;;;;;;;7.50;2.75;;;25.90;80.60;;;;;;4995062;28;20049;-79
2021/06/14 07:21:01;;;;;;;8.27;2.63;;;26.30;80.30;;;;;;4991376;28;20011;-79
2021/06/14 07:23:26;;;;;;;8.88;2.72;;;26.90;79.60;;;;;;5004301;28;20162;-80
2021/06/14 07:25:52;;;;;;;6.45;2.60;;;27.40;79.10;;;;;;4986845;28;20531;-82
2021/06/14 07:28:18;;;;;;;13.57;2.50;;;27.50;78.60;;;;;;4974651;28;20030;-80
2021/06/14 07:30:43;;;;;;;8.30;2.83;;;27.10;79.30;;;;;;4980108;28;20148;-83
2021/06/14 07:33:09;;;;;;;6.03;2.47;;;27.20;79.50;;;;;;5006819;28;20022;-83
2021/06/14 07:35:36;;;;;;;12.63;2.58;;;27.50;79.10;;;;;;4987071;28;20041;-80
2021/06/14 07:38:03;;;;;;;5.20;2.60;;;28.00;78.50;;;;;;5010110;28;20559;-83
2021/06/14 07:40:30;;;;;;;10.60;2.72;;;28.40;78.50;;;;;;5012122;28;20017;-89
2021/06/14 07:42:56;;;;;;;5.05;2.58;;;28.70;78.60;;;;;;4994949;28;20022;-82
2021/06/14 07:45:24;;;;;;;9.77;2.60;;;28.50;79.50;;;;;;4993791;28;20496;-82
2021/06/14 07:47:50;;;;;;;7.68;2.42;;;28.50;79.80;;;;;;4993196;28;20026;-84
2021/06/14 07:50:16;;;;;;;6.80;2.80;;;28.50;78.10;;;;;;4999841;28;20108;-83
2021/06/14 07:52:42;;;;;;;5.75;2.53;;;28.20;79.00;;;;;;5015649;28;20109;-83
2021/06/14 07:55:09;;;;;;;14.45;2.95;;;28.10;79.10;;;;;;4992593;28;20511;-82
2021/06/14 07:57:34;;;;;;;7.72;2.60;;;28.10;79.70;;;;;;4993476;28;20501;-83
2021/06/14 08:00:00;;;;;;;11.02;2.70;;;28.30;80.90;;;;;;4992957;28;20047;-80
2021/06/14 08:02:26;;;;;;;11.95;2.40;;;28.50;79.20;;;;;;5010762;28;20026;-83
2021/06/14 08:04:54;;;;;;;6.88;2.28;;;28.60;78.60;;;;;;4991154;28;20029;-85
2021/06/14 08:07:20;;;;;;;9.98;2.58;;;28.80;79.40;;;;;;4994628;28;20022;-84
2021/06/14 08:09:55;;;;;;;5.40;2.40;;;29.10;78.70;;;;;;4986975;28;20065;-86
2021/06/14 08:12:21;;;;;;;11.25;2.72;;;29.10;77.90;;;;;;5011333;28;20029;-85
2021/06/14 08:14:54;;;;;;;12.40;2.88;;;29.30;78.80;;;;;;5011755;28;20038;-86
2021/06/14 08:17:29;;;;;;;9.98;3.25;;;29.10;77.50;;;;;;5009778;28;20486;-84
2021/06/14 08:20:35;;;;;;;6.60;2.65;;;28.80;78.30;;;;;;5010998;28;20026;-86
2021/06/14 08:26:03;;;;;;;12.82;3.15;;;29.30;79.00;;;;;;5017925;28;20049;-85
2021/06/14 08:28:57;;;;;;;;;;;;;;;;;;;;;
2021/06/14 08:31:27;;;;;;;11.43;3.30;;;29.40;78.40;;;;;;5027223;28;20043;-85
2021/06/14 08:34:02;;;;;;;20.83;3.60;;;29.60;78.80;;;;;;5008719;28;20513;-85
2021/06/14 08:36:28;;;;;;;9.93;3.00;;;29.80;78.10;;;;;;4979525;28;20471;-85
2021/06/14 08:38:54;;;;;;;11.18;2.53;;;29.90;77.70;;;;;;5006994;28;20109;-85
2021/06/14 08:45:21;;;;;;;12.07;2.30;;;30.20;78.60;;;;;;4923444;28;20493;-84
2021/06/14 08:47:48;;;;;;;7.75;2.15;;;29.90;76.40;;;;;;5009881;28;20052;-85
2021/06/14 08:50:18;;;;;;;6.38;2.25;;;29.80;77.10;;;;;;4985929;28;20042;-83
2021/06/14 08:52:44;;;;;;;8.65;2.78;;;29.60;77.10;;;;;;4989810;28;20686;-83
2021/06/14 08:55:12;;;;;;;8.05;2.38;;;29.40;77.30;;;;;;5007984;28;20519;-84
2021/06/14 08:57:39;;;;;;;6.40;2.65;;;29.20;78.20;;;;;;5011220;28;20026;-86
2021/06/14 09:00:11;;;;;;;24.27;3.75;;;29.10;79.50;;;;;;5010209;28;20072;-83
2021/06/14 09:02:37;;;;;;;28.23;3.08;;;29.00;79.10;;;;;;5001096;28;20029;-85
2021/06/14 09:05:05;;;;;;;23.05;3.47;;;29.20;79.50;;;;;;4990415;28;20026;-85
2021/06/14 09:07:34;;;;;;;7.43;2.53;;;29.40;78.70;;;;;;4992239;28;20018;-88
2021/06/14 09:10:07;;;;;;;7.07;2.80;;;29.60;78.10;;;;;;4993429;28;20026;-83
2021/06/14 09:12:51;;;;;;;9.48;2.97;;;29.40;78.50;;;;;;4991183;28;20117;-87
2021/06/14 09:15:18;;;;;;;7.68;2.20;;;29.40;79.30;;;;;;5007372;28;20038;-83
2021/06/14 09:17:56;;;;;;;13.70;2.90;;;29.70;79.00;;;;;;5010341;28;20026;-82
2021/06/14 09:20:24;;;;;;;10.40;3.53;;;30.00;78.80;;;;;;4994576;28;20024;-83
2021/06/14 09:22:50;;;;;;;5.68;2.50;;;30.00;77.70;;;;;;5012029;28;20022;-84
2021/06/14 09:25:23;;;;;;;7.95;2.58;;;29.70;77.20;;;;;;4995739;28;20067;-83
2021/06/14 09:27:51;;;;;;;12.75;3.50;;;29.40;78.50;;;;;;5005342;28;20474;-83
2021/06/14 09:30:20;;;;;;;6.68;2.67;;;29.30;79.00;;;;;;4996219;28;20042;-83
2021/06/14 09:33:03;;;;;;;8.90;2.78;;;29.40;78.50;;;;;;4996281;28;20117;-82
2021/06/14 09:35:37;;;;;;;16.88;3.08;;;29.40;78.80;;;;;;5008726;28;20054;-85
2021/06/14 09:38:14;;;;;;;8.15;3.33;;;29.30;78.70;;;;;;4996232;28;20129;-86
2021/06/14 09:40:52;;;;;;;11.98;2.88;;;29.10;79.10;;;;;;5014354;28;20024;-83
2021/06/14 09:43:37;;;;;;;19.55;4.00;;;29.10;80.20;;;;;;5012028;28;20095;-85
2021/06/14 09:46:33;;;;;;;18.38;4.50;;;28.90;80.00;;;;;;5014320;28;20022;-83
2021/06/14 09:49:01;;;;;;;13.13;3.85;;;28.70;80.00;;;;;;4995330;28;20029;-84
2021/06/14 09:51:27;;;;;;;10.75;2.85;;;28.70;80.80;;;;;;4996408;28;20050;-82
2021/06/14 09:53:54;;;;;;;7.88;3.05;;;28.60;80.90;;;;;;4994250;28;20065;-84
2021/06/14 09:56:35;;;;;;;7.82;2.92;;;28.50;80.90;;;;;;5012632;28;20045;-83
2021/06/14 09:59:02;;;;;;;5.35;2.47;;;28.30;82.20;;;;;;4996050;28;20030;-84
2021/06/14 10:01:29;;;;;;;8.18;3.13;;;28.40;82.40;;;;;;5013272;28;20048;-82
2021/06/14 10:03:57;;;;;;;10.20;3.13;;;28.60;81.80;;;;;;4996534;28;20101;-85
2021/06/14 10:06:42;;;;;;;5.35;2.95;;;28.80;81.50;;;;;;5012918;28;20055;-83
2021/06/14 10:09:15;;;;;;;5.00;2.60;;;29.10;81.70;;;;;;5010607;28;20052;-83
2021/06/14 10:11:43;;;;;;;13.13;3.60;;;29.20;80.70;;;;;;5010397;28;20084;-85
2021/06/14 10:14:11;;;;;;;3.95;2.72;;;29.20;80.50;;;;;;5006035;28;20034;-83
2021/06/14 10:16:38;;;;;;;4.25;2.50;;;29.20;80.60;;;;;;5012555;28;20364;-82
2021/06/14 10:19:06;;;;;;;6.80;2.92;;;29.20;80.40;;;;;;5012155;28;20471;-85
2021/06/14 10:21:41;;;;;;;8.15;3.67;;;29.40;81.10;;;;;;4995553;28;20113;-83
2021/06/14 10:24:11;;;;;;;6.68;3.30;;;29.30;80.80;;;;;;5000617;28;20057;-81
2021/06/14 10:26:39;;;;;;;6.28;2.65;;;29.00;81.10;;;;;;5012070;28;20035;-82
2021/06/14 10:29:07;;;;;;;8.73;2.90;;;29.10;80.70;;;;;;5013132;28;20117;-83
2021/06/14 10:31:35;;;;;;;6.90;2.85;;;29.20;80.60;;;;;;5012704;28;20105;-84
2021/06/14 10:34:02;;;;;;;5.10;2.75;;;29.40;80.60;;;;;;5012983;28;20042;-85
2021/06/14 10:36:29;;;;;;;4.90;2.55;;;29.60;80.30;;;;;;4992102;28;20047;-84
2021/06/14 10:38:56;;;;;;;8.40;3.08;;;29.80;80.30;;;;;;5010004;28;20034;-82
2021/06/14 10:41:23;;;;;;;4.28;2.63;;;29.90;79.30;;;;;;5012178;28;20088;-86
2021/06/14 10:43:50;;;;;;;6.47;3.08;;;29.90;80.10;;;;;;5012929;28;20068;-80
2021/06/14 10:46:19;;;;;;;13.55;2.70;;;30.00;80.30;;;;;;4995173;28;20092;-85
2021/06/14 10:48:46;;;;;;;15.23;3.30;;;30.00;80.40;;;;;;5013770;28;20018;-82
2021/06/14 10:51:21;;;;;;;7.22;3.60;;;29.80;80.70;;;;;;5012517;28;20117;-82
2021/06/14 10:53:51;;;;;;;9.07;2.90;;;29.60;80.70;;;;;;5011168;28;20385;-86
2021/06/14 10:56:23;;;;;;;10.98;3.20;;;29.50;81.20;;;;;;5013134;28;20022;-83
2021/06/14 10:59:06;;;;;;;15.25;3.25;;;29.40;81.50;;;;;;5012625;28;20109;-84
2021/06/14 11:01:34;;;;;;;7.22;3.28;;;29.40;81.40;;;;;;5012732;28;20112;-84
2021/06/14 11:04:01;;;;;;;6.32;2.92;;;29.30;81.40;;;;;;5018840;28;20030;-82
2021/06/14 11:06:30;;;;;;;14.20;3.95;;;29.40;81.60;;;;;;5012669;28;20018;-83
2021/06/14 11:09:01;;;;;;;12.68;3.10;;;29.50;80.60;;;;;;5012813;28;20026;-81
2021/06/14 11:11:27;;;;;;;14.40;3.47;;;29.40;81.40;;;;;;5012432;28;20553;-81
2021/06/14 11:13:53;;;;;;;8.57;3.47;;;29.40;82.00;;;;;;5012477;28;20085;-88
2021/06/14 11:16:19;;;;;;;6.30;3.00;;;29.40;81.20;;;;;;5012616;28;20022;-83
2021/06/14 11:18:48;;;;;;;8.50;3.28;;;29.30;81.20;;;;;;5012370;28;20029;-86
2021/06/14 11:21:18;;;;;;;6.00;3.17;;;29.40;81.00;;;;;;5003974;28;20033;-83
2021/06/14 11:23:46;;;;;;;4.30;2.75;;;29.50;80.70;;;;;;5011358;28;20359;-89
2021/06/14 11:26:24;;;;;;;9.20;2.90;;;29.60;80.70;;;;;;5009232;28;20033;-85
2021/06/14 11:28:49;;;;;;;12.43;3.40;;;29.70;80.70;;;;;;5012020;28;20153;-82
2021/06/14 11:31:23;;;;;;;6.38;2.92;;;29.90;80.70;;;;;;5012167;28;20109;-82
2021/06/14 11:33:50;;;;;;;10.13;3.42;;;30.00;81.30;;;;;;4994429;28;20647;-80
2021/06/14 11:36:24;;;;;;;9.63;3.13;;;30.10;80.50;;;;;;4994288;28;20069;-81
2021/06/14 11:38:51;;;;;;;4.22;2.65;;;30.20;81.90;;;;;;5007100;28;20049;-80
2021/06/14 11:41:31;;;;;;;10.63;3.63;;;30.40;82.00;;;;;;5009983;28;20560;-83
2021/06/14 11:44:19;;;;;;;6.50;3.17;;;30.40;81.90;;;;;;5008142;28;20049;-81
2021/06/14 11:46:46;;;;;;;8.38;2.78;;;30.40;80.90;;;;;;4999963;28;20101;-81
2021/06/14 11:49:12;;;;;;;7.90;3.47;;;30.20;81.70;;;;;;5069784;23;20100;-78
2021/06/14 11:51:38;;;;;;;8.68;3.80;;;30.00;81.90;;;;;;5010372;28;20026;-78
2021/06/14 11:54:04;;;;;;;8.35;3.22;;;29.70;84.50;;;;;;5010264;28;20356;-78
2021/06/14 11:56:36;;;;;;;16.02;3.70;;;29.40;84.80;;;;;;5011655;28;20022;-78
2021/06/14 11:59:03;;;;;;;11.05;3.20;;;29.20;87.40;;;;;;5011392;28;20072;-79
2021/06/14 12:01:32;;;;;;;10.18;3.60;;;29.00;85.90;;;;;;5011716;28;20033;-80
2021/06/14 12:04:06;;;;;;;8.80;3.67;;;28.80;85.70;;;;;;5011629;28;20018;-79
2021/06/14 12:06:42;;;;;;;6.97;3.35;;;28.70;85.50;;;;;;5011538;28;20025;-80
2021/06/14 12:09:09;;;;;;;20.95;3.85;;;28.70;85.50;;;;;;5004452;28;20026;-79
2021/06/14 12:11:35;;;;;;;10.48;3.20;;;28.70;86.60;;;;;;4989981;28;20451;-80
2021/06/14 12:14:20;;;;;;;15.07;3.63;;;28.70;85.10;;;;;;5003720;28;20033;-80
2021/06/14 12:16:54;;;;;;;10.90;4.22;;;28.70;85.40;;;;;;4994133;28;20165;-78
2021/06/14 12:19:21;;;;;;;6.50;3.05;;;28.70;84.90;;;;;;5011397;28;20029;-80
2021/06/14 12:21:57;;;;;;;6.93;2.85;;;28.70;85.10;;;;;;5012241;28;20115;-80
2021/06/14 12:24:23;;;;;;;8.48;3.53;;;28.70;85.40;;;;;;5016722;28;20018;-79
2021/06/14 12:26:49;;;;;;;8.80;3.78;;;28.70;85.50;;;;;;4992528;28;20034;-78
2021/06/14 12:29:22;;;;;;;6.55;3.85;;;28.60;86.80;;;;;;5006035;28;20057;-80
2021/06/14 12:32:09;;;;;;;9.23;3.22;;;28.50;88.00;;;;;;4999703;28;20111;-80
2021/06/14 12:34:40;;;;;;;9.70;3.53;;;28.40;88.90;;;;;;5007358;28;20037;-80
2021/06/14 12:37:13;;;;;;;9.88;3.90;;;28.40;87.40;;;;;;5008788;28;20057;-79
2021/06/14 12:39:39;;;;;;;9.90;3.63;;;28.40;87.20;;;;;;5007503;28;20037;-79
2021/06/14 12:42:16;;;;;;;5.80;3.10;;;28.30;87.20;;;;;;5006257;28;20014;-79
2021/06/14 12:45:03;;;;;;;7.38;3.83;;;28.20;87.20;;;;;;5007668;28;20022;-78
2021/06/14 12:47:30;;;;;;;8.40;4.20;;;28.20;88.10;;;;;;5000422;28;20030;-79
2021/06/14 12:49:57;;;;;;;7.50;3.15;;;28.20;88.10;;;;;;5005035;28;20490;-78
2021/06/14 12:52:25;;;;;;;10.27;3.35;;;28.20;87.10;;;;;;5010957;28;20026;-78
2021/06/14 12:54:51;;;;;;;6.32;3.10;;;28.30;86.10;;;;;;5012438;28;20636;-79
2021/06/14 12:57:17;;;;;;;4.82;3.05;;;28.40;85.40;;;;;;5009150;28;20482;-80